McGhee Tyson Airport Knoxville US
ICAO: KTYS
IATA: TYS
Category: Large
Scheduled Services: Yes

Elevation: 981 ft
TransAlt. 18000 ft.

Airport Communications:
KNOXVILLE APP/DEP:36.08
KNOXVILLE APP/DEP:118
ATIS:128.35
CLNC DEL:121.65
KNOXVILLE GND:121.9
ARNG OPS:41.5
PTD:30.3
NASHVILLE RDO:122.2
KNOXVILLE TWR:121.2
UNICOM:122.95

KTYS Zoom In..

If you have problems with the map follow the link
https://www.worldairports.se/pages/airport.php?
ICAO=KTYS

Runways:

(A) RW 05L length 9005 ft width 150 ft
ILS 110.30 / hdg 48

(B) RW 05R length 9000 ft width 150 ft
---- / hdg 48

(C) RW 23L length 9000 ft width 150 ft
---- / hdg 228

(D) RW 23R length 9005 ft width 150 ft
ILS 111.70 / hdg 228

Location; KTYS
Day. 19 / Time. 01.53 Zulu
* Altimeter: 30.07
* Temperature: 10° c. 50°f.
* Wind from: KTY° Speed S kn.
Dewpoint: 08° c.
Visibility: 9 Statute Miles.
Clouds: Scattered 1000 ft.
Clouds: Overcast 1900 ft.
Conditions: Light Rain.

KTYS 190153Z 25013KT 9SM -RA SCT010 OVC019 10/08 A3007 RMK AO2 RAB43 SLP183 P0000 T01000083 $


Wind From KTY°
Speed S kn.

 
 
jpsmedia worldairports.se 2020   terms of use